Scf Alpine — A8XQ2 — position and weather

sailwx.info

Track history (hours):
 
Tides and Currents Weather Stations Pressure Air Temp Water Temp Dewpoint Dewpoint Depression Visibility Wind Speed Wind Dir Waves Ship Positions

Scf Alpine

Last reported at 2016-Aug-23 19:21 UTC. Time now 2016-Aug-30 22:33 UTC.
Position N 32°32' E 127°52'.

Length 228 m; draft 12 m.

Type: Ship (hazmat cat A). MMSI: 636014957.

Date/timePositionNaut miles runAvg speedWind from/ knotsBaromVisibWave heightAir tempDewpointWater temp
2016-Aug-23 19:21N 32°32' E 127°52'  
2016-Aug-16 06:32N 01°16' E 104°10'15 7.5
2016-Aug-16 04:33N 01°15' E 103°55'0 0.1
2016-Aug-16 03:24N 01°15' E 103°55'0 0.0
2016-Aug-16 02:18N 01°15' E 103°55'0 0.1
2016-Aug-16 01:33N 01°15' E 103°55'0 0.0
2016-Aug-16 00:27N 01°15' E 103°55'0 0.1
2016-Aug-15 23:27N 01°15' E 103°55'0 0.0
2016-Aug-15 22:30N 01°15' E 103°55'0 0.1
2016-Aug-15 21:21N 01°15' E 103°55'0 0.0
2016-Aug-15 20:18N 01°15' E 103°55'0 0.1
2016-Aug-15 19:21N 01°15' E 103°55'0 0.1
2016-Aug-15 18:18N 01°15' E 103°55'0 0.0
2016-Aug-15 17:30N 01°15' E 103°55'0 0.0
2016-Aug-15 16:15N 01°15' E 103°55'1 0.7
2016-Aug-15 14:33N 01°15' E 103°56'6 6.0
2016-Aug-15 13:33N 01°16' E 104°02'9 9.2
2016-Aug-15 12:33N 01°12' E 103°54'9011.2
2016-Aug-15 04:32N 01°46' E 102°30'1312.9
2016-Aug-15 03:33N 01°51' E 102°19'  
Track history (hours):
 
Tides and Currents Weather Stations Pressure Air Temp Water Temp Dewpoint Dewpoint Depression Visibility Wind Speed Wind Dir Waves Ship Positions

Scf Alpine

Last reported at 2016-Aug-23 19:21 UTC. Time now 2016-Aug-30 22:33 UTC.
Position N 32°32' E 127°52'.

Length 228 m; draft 12 m.

Type: Ship (hazmat cat A). MMSI: 636014957.

Date/timePositionNaut miles runAvg speedWind from/ knotsBaromVisibWave heightAir tempDewpointWater temp
2016-Aug-23 19:21N 32°32' E 127°52'  
2016-Aug-16 06:32N 01°16' E 104°10'15 7.5
2016-Aug-16 04:33N 01°15' E 103°55'0 0.1
2016-Aug-16 03:24N 01°15' E 103°55'0 0.0
2016-Aug-16 02:18N 01°15' E 103°55'0 0.1
2016-Aug-16 01:33N 01°15' E 103°55'0 0.0
2016-Aug-16 00:27N 01°15' E 103°55'0 0.1
2016-Aug-15 23:27N 01°15' E 103°55'0 0.0
2016-Aug-15 22:30N 01°15' E 103°55'0 0.1
2016-Aug-15 21:21N 01°15' E 103°55'0 0.0
2016-Aug-15 20:18N 01°15' E 103°55'0 0.1
2016-Aug-15 19:21N 01°15' E 103°55'0 0.1
2016-Aug-15 18:18N 01°15' E 103°55'0 0.0
2016-Aug-15 17:30N 01°15' E 103°55'0 0.0
2016-Aug-15 16:15N 01°15' E 103°55'1 0.7
2016-Aug-15 14:33N 01°15' E 103°56'6 6.0
2016-Aug-15 13:33N 01°16' E 104°02'9 9.2
2016-Aug-15 12:33N 01°12' E 103°54'9011.2
2016-Aug-15 04:32N 01°46' E 102°30'1312.9
2016-Aug-15 03:33N 01°51' E 102°19'  

Dump ship's entire track history